Winter Park, Florida
Current Conditions -  °F | °C
As of 3:53 PM on Thursday 27 Nov 2014 (Local Time) from KORL Reporting Station
Clear Clear  
Wind Chill: 68°   Ceiling: Unl
Heat Index: 68°   Visibility: 10mi
Dew Point: 40°   Wind: 10mph
Humidity: 36%   Direction: 320°NW
Pressure: 30.17"   Gusts: 20mph
Location:  28.59°N, 81.35°W
Report Text: KORL 272053Z 32009G17KT 10SM CLR 20/04 A3017 RMK AO2 SLP222 T02000044 55007
Loading
Personal Weather Stations






























Interactive Weather Map New forecast layout! Learn more

10-Day Weather Forecast

Advertisements
Track Severe Weather on mobile